Terminal Aerodrome Forecast
Issued by NWS

Home | Current Version | Previous Version | Graphics & Text | Print | Product List | Glossary On
Versions: 1 2 3 4 5 6 7 8 9 10 11 12 13 14
000
FTUS43 KFGF 131700
TAFBJI
TAF
KBJI 131720Z 1318/1418 32015G25KT P6SM OVC010
      TEMPO 1319/1321 BKN015
     FM132100 35015G25KT P6SM BKN025
     FM140000 34015KT P6SM BKN040
     FM140300 33010KT P6SM SCT040=

USA.gov is the U.S. government's official web portal to all federal, state and local government web resources and services.